Airfield :
LOGIN :

Register | Disclaimer

   EN    FR    IT 

 










Legend :    VFR   Marginal VFR   IFR   Intensive IFR   Very Intensive IFR
Visi :
Ceiling :
>= 8 km
>= 3000ft
5 to 8 km
1000 to 3000 ft
1500m to 5 km
500 to 1000 ft
800 to 1500m
200 to 500 ft
< 800m
< 200 ft
Symbols :   Thunderstorms  Fog  Heavy snow  Heavy precipitations  Wind > 20 kt
SIGMETs :     Misc.  Thunderstorms  Icing  Turbulence  Mountain Waves  Volcanic Ashes







- Airport Elevation : 202 ft
- IATA code : LGW
- Download approach charts


EGKK - London Gatwick

CURRENT METAR :
  • 180350Z VRB01KT CAVOK M02/M03 Q1018

EXPIRED METARs :
  • 180320Z 27001KT CAVOK M02/M03 Q1019
  • 180250Z VRB01KT CAVOK M01/M03 Q1019
  • 180220Z 11001KT CAVOK M02/M03 Q1019
  • 180150Z 23002KT CAVOK M01/M03 Q1019
  • 180120Z 24002KT CAVOK M01/M03 Q1019

TAF TAF EGKK
Valid from the 18 at 00:00 until the 19 at 06:00 UTC


172256Z 1800/1906 VRB03KT 9999 FEW035
TEMPO 1803/1810 8000
PROB30 1805/1809 4000 BR
BECMG 1810/1813 17010KT
BECMG 1819/1822 BKN012
TEMPO 1820/1906 6000 -RADZ BKN008
PROB30
TEMPO 1822/1906 4000 RADZ BKN004
No reported NOTAMs for that airfield.



MET'MAP, your aeronautical weather chart ! - Copyright ORBIFLY December 2007 - Disclaimer

ORBIFLY MET'MAP TEAM :

Programming & Development : Alexandra Zaïnal
Concept & Development : Baudouin d'Aumeries
Co-Development & Prog : Marc-Olivier Méhu
Technical & hardware support : Manuel Goepfert

Contact : metmap@orbifly.com




SOURCES & CREDITS :

   NOAA